Hauptseite
METAR-TAF:

METAR-TAF

Flughäfen :

Touggourt, Algerien

Breite: 33-07N, Länge: 006-08E, Höhe: 85 m

Beobachtung

Neuester Wetterbericht von vor 49 Minuten, um 04:00 UTC
Wind 4 kt aus Nord
Temperatur 19°C
Luftfeuchtigkeit 52%
Luftdruck 1013 hPa
Sichtweite 10 km oder mehr
keine Wolken unter 1500 m und keine Kumulonimbus oder Gewitterwolken

METAR: DAUK 260400Z 36004KT CAVOK 19/09 Q1013

Zeit: 05:49 (04:49 UTC)

Prognose

Neuester Wetterbericht von vor 2 Stunden und 49 Minuten, um 02:00 UTC
Gültige Prognose vom 26 um 03 UTC bis 26 um 12 UTC
Wind 10 kt aus Ost/Nordost

TAF: DAUK 260200Z 2603/2612 06010KT CAVOKZ

Wetterbeobachtungen und Prognosen von mehr als 4000 Flughäfen (METAR und TAF Bericht).

Die verfügbaren Stationen werden durch gelbe und rote Markierungen auf der Karte dargestellt.

Führen Sie die Maus auf sie, um den Namen der Station zu sehen.

Darauf klicken, um die Beobachtung von Wetterbeobachtungen und Prognosen zu sehen.

Um die Karte zu ändern : klicken Sie auf den grünen Tasten mit einem schwarzen Kreuz Zum Vergrößern, auf den grünen Button mit einem Gedankenstrich zu verkleinern, oder auf die grünen Pfeile für benachbarte Karten.


METAR-TAF: